Urb Punto Oro, Puerto Rico
Current Conditions -  °F | °C
As of 9:50 AM on Sunday 21 Dec 2014 (Local Time) from TJPS Reporting Station
Scattered Clouds Scattered Clouds  
Wind Chill: 84°   Ceiling: Unl
Heat Index: 86°   Visibility: 10mi
Dew Point: 66°   Wind: 10mph
Humidity: 55%   Direction: 110°ESE
Pressure: 30.03"   Gusts: NA
Location:  18.0073°N, 66.5912°W
Report Text: TJPS 211350Z 11009KT 10SM SCT020 29/19 A3003
Loading
Personal Weather Stations






























Interactive Weather Map New forecast layout! Learn more

10-Day Weather Forecast

Advertisements
Track Severe Weather on mobile